• Join FlightAware (Why Join?)
  • Login
  • US Flag 
11:49AM EDT


 

Airport Tracker/Info


-or-


 

Live Flight TrackerFlight Track Log ✈ UPS2774 ✈ 22-Jul-2013 ✈ KSDF - KIAH

Flight Track Log - Related Links

Times and Time Zones

All times are in EDT time to prevent confusion due to time zone crossing. See the UPS2774 flight status page for this flight to view local times or setup timezone preferences in your user account.

Time Position Orientation Groundspeed Altitude Reporting Facility
EDT Latitude Longitude Course Direction KTS MPH feet Rate Location/Type
05:01PM 38.1760 -85.7440 343° North 34 39  Level FlightAware
05:02PM 38.1800 -85.7450 349° North 34 39 120 Level FlightAware
05:03PM 38.1830 -85.7460 345° North 22 25 120 Level FlightAware
05:03PM 38.1850 -85.7460 360° North 25 29 180 Level FlightAware
05:04PM 38.1850 -85.7470 270° West 180 Level FlightAware
05:04PM 38.1850 -85.7480 270° West 19 22 240 Level FlightAware
05:05PM 38.1840 -85.7480 180° South 240 Level FlightAware
05:07PM 38.0667 -85.8211 270° West  Level FlightAware Approximate
05:07PM 38.1830 -85.7470 270° West 63 72  Level FlightAware
05:08PM 38.1660 -85.7420 167° South 181 208 1,000 2,760 Climbing FlightAware
05:08PM 38.1520 -85.7330 153° Southeast 193 222 2,100 3,000 Climbing FlightAware
05:08PM 38.1440 -85.7240 138° Southeast 220 253 2,400 1,800 Climbing FlightAware
05:09PM 38.1270 -85.6880 121° Southeast 275 316 3,300 2,760 Climbing FlightAware
05:09PM 38.1120 -85.6530 119° Southeast 286 329 4,800 2,880 Climbing FlightAware
05:09PM 38.1020 -85.6380 130° Southeast 286 329 5,100 720 Climbing FlightAware
05:09PM 38.0890 -85.6300 154° Southeast 283 326 5,100  Level FlightAware
05:10PM 38.0680 -85.6270 174° South 278 320 5,100  Level FlightAware
05:10PM 38.0310 -85.6240 176° South 277 319 5,100  Level FlightAware
05:11PM 37.9970 -85.6210 176° South 278 320 5,100 1,020 Level FlightAware
05:11PM 37.9600 -85.6310 192° South 268 308 6,100 2,460 Climbing FlightAware
05:11PM 37.9510 -85.6460 233° Southwest 265 305 6,800 3,960 Climbing FlightAware
05:12PM 37.9280 -85.6860 234° Southwest 279 321 8,900 3,840 Climbing FlightAware
05:12PM 37.8950 -85.7390 232° Southwest 307 353 11,300 2,820 Climbing FlightAware
05:13PM 37.8590 -85.7970 232° Southwest 359 413 12,600 2,400 Climbing FlightAware
05:14PM 37.8100 -85.8720 230° Southwest 402 463 14,600 3,060 Climbing FlightAware
05:14PM 37.7660 -85.9410 231° Southwest 422 486 16,700 2,760 Climbing FlightAware
05:15PM 37.7130 -86.0240 231° Southwest 456 525 18,300 2,460 Climbing FlightAware
05:16PM 37.6670 -86.0950 231° Southwest 469 540 20,000 2,820 Climbing FlightAware
05:17PM 37.5740 -86.2400 231° Southwest 490 564 23,000 2,820 Climbing FlightAware
05:18PM 37.5120 -86.3350 231° Southwest 498 573 24,900 2,820 Climbing FlightAware
05:18PM 37.4540 -86.4250 231° Southwest 497 572 26,900 3,180 Climbing FlightAware
05:19PM 37.3970 -86.5130 231° Southwest 483 556 29,200 3,360 Climbing FlightAware
05:20PM 37.3430 -86.5950 230° Southwest 467 537 31,400 3,480 Climbing FlightAware
05:20PM 37.2900 -86.6760 231° Southwest 443 510 33,800 2,460 Climbing FlightAware
05:21PM 37.2360 -86.7580 230° Southwest 449 517 34,800 1,560 Climbing FlightAware
05:21PM 37.1890 -86.8300 231° Southwest 443 510 35,900 840 Climbing FlightAware
05:22PM 37.1320 -86.9170 231° Southwest 440 506 36,000 60 Climbing FlightAware
05:23PM 37.0860 -86.9870 231° Southwest 442 509 36,000  Level FlightAware
05:24PM 37.0260 -87.0770 230° Southwest 447 514 36,000  Level FlightAware
05:24PM 36.9730 -87.1580 231° Southwest 453 521 36,000  Level FlightAware
05:25PM 36.9140 -87.2470 230° Southwest 457 526 36,000  Level FlightAware
05:26PM 36.8580 -87.3290 230° Southwest 460 529 36,000  Level FlightAware
05:26PM 36.8040 -87.4110 231° Southwest 462 532 36,000 420 Level FlightAware
05:27PM 36.7500 -87.4910 230° Southwest 460 529 36,600 1,260 Climbing FlightAware
05:28PM 36.6930 -87.5760 230° Southwest 449 517 37,800 1,080 Climbing FlightAware
05:28PM 36.6490 -87.6420 230° Southwest 443 510 38,000 120 Climbing FlightAware
05:29PM 36.5960 -87.7200 230° Southwest 443 510 38,000  Level FlightAware
05:30PM 36.5370 -87.8080 230° Southwest 449 517 38,000  Level FlightAware
05:30PM 36.4810 -87.8900 230° Southwest 450 518 38,000  Level FlightAware
05:31PM 36.4200 -87.9800 230° Southwest 451 519 38,000  Level FlightAware
05:32PM 36.3690 -88.0550 230° Southwest 452 520 38,000  Level FlightAware
05:32PM 36.3110 -88.1390 229° Southwest 451 519 38,000  Level FlightAware
05:33PM 36.2630 -88.2100 230° Southwest 454 522 38,000  Level FlightAware
05:34PM 36.2060 -88.2920 229° Southwest 454 522 38,000  Level FlightAware
05:34PM 36.1640 -88.3520 229° Southwest 454 522 38,000  Level FlightAware
05:35PM 36.0840 -88.4700 230° Southwest 456 525 38,000  Level FlightAware
05:36PM 36.0270 -88.5520 229° Southwest 456 525 38,000  Level FlightAware
05:37PM 35.9850 -88.6120 229° Southwest 456 525 38,000  Level FlightAware
05:37PM 35.9430 -88.6720 229° Southwest 456 525 38,000  Level FlightAware
05:38PM 35.8880 -88.7490 229° Southwest 456 525 38,000  Level FlightAware
05:39PM 35.8460 -88.8090 229° Southwest 456 525 38,000  Level FlightAware
05:39PM 35.7900 -88.8890 229° Southwest 456 525 38,000  Level FlightAware
05:40PM 35.7470 -88.9490 229° Southwest 456 525 38,000  Level FlightAware
05:41PM 35.6910 -89.0290 229° Southwest 456 525 38,000  Level FlightAware
05:41PM 35.6480 -89.0890 229° Southwest 456 525 38,000  Level FlightAware
05:42PM 35.6060 -89.1490 229° Southwest 456 525 38,000  Level FlightAware
05:43PM 35.5340 -89.2500 229° Southwest 456 525 38,000  Level FlightAware
05:44PM 35.4920 -89.3100 229° Southwest 456 525 38,000  Level FlightAware
05:44PM 35.4340 -89.3920 229° Southwest 456 525 38,000  Level FlightAware
05:45PM 35.3940 -89.4480 229° Southwest 456 525 38,000  Level FlightAware
05:45PM 35.2247 -89.6961 229° Southwest 470 541 38,000  Level Memphis Center
05:46PM 35.1292 -89.8086 224° Southwest 470 541 38,000  Level Memphis Center
05:47PM 35.0189 -89.8931 212° Southwest 476 548 38,000  Level Memphis Center
05:48PM 34.8983 -89.9797 211° Southwest 490 564 38,000  Level Memphis Center
05:49PM 34.7817 -90.0561 208° Southwest 495 570 38,000  Level Memphis Center
05:50PM 34.6669 -90.1375 210° Southwest 478 550 38,000  Level Memphis Center
05:51PM 34.5544 -90.2158 210° Southwest 478 550 38,000  Level Memphis Center
05:52PM 34.4522 -90.2867 210° Southwest 473 544 38,000  Level Memphis Center
05:53PM 34.3397 -90.3647 210° Southwest 467 537 38,000  Level Memphis Center
05:54PM 34.2250 -90.4450 210° Southwest 467 537 38,000  Level Memphis Center
05:55PM 34.1100 -90.5203 208° Southwest 467 537 38,000  Level Memphis Center
05:56PM 34.0014 -90.6103 214° Southwest 472 543 38,000  Level Memphis Center
05:57PM 33.9050 -90.7150 222° Southwest 477 549 38,000  Level Memphis Center
05:58PM 33.7983 -90.8272 221° Southwest 472 543 38,000  Level Memphis Center
05:59PM 33.6997 -90.9289 221° Southwest 467 537 38,000  Level Memphis Center
06:00PM 33.6011 -91.0306 221° Southwest 467 537 38,000  Level Memphis Center
06:01PM 33.5025 -91.1344 221° Southwest 467 537 38,000  Level Memphis Center
06:02PM 33.4036 -91.2331 220° Southwest 467 537 38,000  Level Memphis Center
06:03PM 33.3047 -91.3367 221° Southwest 467 537 38,000  Level Memphis Center
06:05PM 33.1428 -91.5006 220° Southwest 466 536 38,000  Level Houston Center
06:06PM 33.0561 -91.5894 221° Southwest 463 533 38,000  Level Houston Center
06:07PM 32.9389 -91.7089 221° Southwest 463 533 38,000  Level Houston Center
06:08PM 32.8394 -91.8097 220° Southwest 462 532 38,000  Level Houston Center
06:09PM 32.7436 -91.9072 221° Southwest 463 533 38,000  Level Houston Center
06:10PM 32.6450 -92.0067 220° Southwest 466 536 38,000  Level Houston Center
06:11PM 32.5417 -92.1108 220° Southwest 468 539 38,000  Level Houston Center
06:12PM 32.4419 -92.2111 220° Southwest 472 543 38,000  Level Houston Center
06:13PM 32.3414 -92.3119 220° Southwest 475 547 38,000  Level Houston Center
06:14PM 32.2397 -92.4131 220° Southwest 478 550 38,000  Level Houston Center
06:15PM 32.1181 -92.5342 220° Southwest 476 548 38,000 -60 Level Houston Center
06:16PM 32.0169 -92.6344 220° Southwest 475 547 37,900 -60 Descending Houston Center
06:17PM 31.9156 -92.7339 220° Southwest 474 545 37,900  Level Houston Center
06:19PM 31.8139 -92.8325 220° Southwest 473 544 37,900  Level Houston Center
06:20PM 31.7125 -92.9306 219° Southwest 473 544 37,900 -120 Level Houston Center
06:25PM 31.1126 -93.5052 219° Southwest 479 551 37,100 -240 Descending FlightAware ADS-B
06:26PM 31.0582 -93.5569 219° Southwest 482 555 36,500 -1,020 Descending FlightAware ADS-B
06:26PM 31.0061 -93.6062 219° Southwest 479 551 36,100 -1,020 Descending FlightAware ADS-B
06:27PM 30.9515 -93.6577 219° Southwest 478 550 35,500 -1,260 Descending FlightAware ADS-B
06:27PM 30.8989 -93.7074 219° Southwest 471 542 34,800 -1,800 Descending FlightAware ADS-B
06:28PM 30.8474 -93.7555 219° Southwest 459 528 33,700 -3,000 Descending FlightAware ADS-B
06:28PM 30.7920 -93.8074 219° Southwest 455 524 31,600 -4,020 Descending FlightAware ADS-B
06:29PM 30.7408 -93.8560 219° Southwest 455 524 29,400 -4,260 Descending FlightAware ADS-B
06:30PM 30.6797 -93.9133 219° Southwest 458 527 26,800 -4,020 Descending FlightAware ADS-B
06:30PM 30.6296 -93.9605 219° Southwest 442 509 24,900 -3,600 Descending FlightAware ADS-B
06:31PM 30.5809 -94.0062 219° Southwest 431 496 23,100 -3,540 Descending FlightAware ADS-B
06:31PM 30.5324 -94.0516 219° Southwest 419 482 21,200 -2,820 Descending FlightAware ADS-B
06:32PM 30.4875 -94.0932 219° Southwest 409 471 20,200 -2,040 Descending FlightAware ADS-B
06:32PM 30.4439 -94.1342 219° Southwest 399 459 19,200 -2,400 Descending FlightAware ADS-B
06:33PM 30.4004 -94.1746 219° Southwest 399 459 17,800 -2,580 Descending FlightAware ADS-B
06:33PM 30.3573 -94.2148 219° Southwest 394 453 16,600 -2,340 Descending FlightAware ADS-B
06:33PM 30.3377 -94.2331 219° Southwest 390 449 16,100 -2,520 Descending FlightAware ADS-B
06:34PM 30.3237 -94.2486 224° Southwest 385 443 15,600 -2,580 Descending FlightAware ADS-B
06:34PM 30.3135 -94.2653 235° Southwest 382 440 15,200 -2,100 Descending FlightAware ADS-B
06:34PM 30.2866 -94.3229 242° Southwest 372 428 14,100 -2,340 Descending FlightAware ADS-B
06:35PM 30.2598 -94.3768 240° Southwest 356 410 12,700 -2,340 Descending FlightAware ADS-B
06:35PM 30.2361 -94.4246 240° Southwest 323 372 11,700 -1,560 Descending FlightAware ADS-B
06:36PM 30.2135 -94.4703 240° Southwest 304 350 11,100 -1,020 Descending FlightAware ADS-B
06:36PM 30.1933 -94.5113 240° Southwest 283 326 10,700 -1,080 Descending FlightAware ADS-B
06:37PM 30.1734 -94.5516 240° Southwest 276 318 10,000 -1,500 Descending FlightAware ADS-B
06:37PM 30.1650 -94.5691 241° Southwest 275 316 9,600 -1,800 Descending FlightAware ADS-B
06:37PM 30.1609 -94.5786 243° Southwest 276 318 9,400 -1,440 Descending FlightAware ADS-B
06:37PM 30.1561 -94.5910 246° West 274 315 9,200 -1,200 Descending FlightAware ADS-B
06:38PM 30.1483 -94.6112 246° West 271 312 8,900 -1,620 Descending FlightAware ADS-B
06:38PM 30.1404 -94.6312 245° Southwest 271 312 8,400 -1,560 Descending FlightAware ADS-B
06:38PM 30.1322 -94.6516 245° Southwest 268 308 8,100 -780 Descending FlightAware ADS-B
06:38PM 30.1245 -94.6709 245° Southwest 259 298 8,000 -240 Descending FlightAware ADS-B
06:39PM 30.1170 -94.6900 246° West 255 293 8,000  Level FlightAware ADS-B
06:39PM 30.1095 -94.7089 245° Southwest 253 291 8,000 -240 Level FlightAware ADS-B
06:39PM 30.1020 -94.7277 245° Southwest 253 291 7,900 -840 Descending FlightAware ADS-B
06:39PM 30.0945 -94.7464 245° Southwest 253 291 7,600 -1,320 Descending FlightAware ADS-B
06:40PM 30.0862 -94.7666 245° Southwest 255 293 7,200 -1,500 Descending FlightAware ADS-B
06:40PM 30.0783 -94.7859 245° Southwest 255 293 6,800 -1,560 Descending FlightAware ADS-B
06:40PM 30.0706 -94.8047 245° Southwest 256 295 6,400 -1,500 Descending FlightAware ADS-B
06:40PM 30.0643 -94.8204 245° Southwest 255 293 6,100 -900 Descending FlightAware ADS-B
06:41PM 30.0568 -94.8389 245° Southwest 253 291 6,000 -240 Descending FlightAware ADS-B
06:41PM 30.0491 -94.8588 246° West 256 295 6,000  Level FlightAware ADS-B
06:41PM 30.0415 -94.8780 245° Southwest 255 293 6,000  Level FlightAware ADS-B
06:41PM 30.0338 -94.8974 245° Southwest 253 291 6,000  Level FlightAware ADS-B
06:42PM 30.0262 -94.9160 245° Southwest 245 282 6,000  Level FlightAware ADS-B
06:42PM 30.0189 -94.9339 245° Southwest 239 275 6,000 -420 Level FlightAware ADS-B
06:42PM 30.0121 -94.9507 245° Southwest 240 276 5,800 -960 Descending FlightAware ADS-B
06:42PM 30.0064 -94.9646 245° Southwest 242 278 5,600 -1,140 Descending FlightAware ADS-B
06:43PM 29.9991 -94.9823 245° Southwest 238 274 5,300 -1,200 Descending FlightAware ADS-B
06:43PM 29.9967 -94.9889 247° West 234 269 5,200 -1,380 Descending FlightAware ADS-B
06:43PM 29.9955 -94.9927 250° West 233 268 5,100 -1,740 Descending FlightAware ADS-B
06:43PM 29.9943 -94.9975 254° West 234 269 5,000 -2,280 Descending FlightAware ADS-B
06:43PM 29.9934 -95.0022 258° West 236 272 4,800 -2,280 Descending FlightAware ADS-B
06:43PM 29.9929 -95.0075 264° West 236 272 4,700 -780 Descending FlightAware ADS-B
06:43PM 29.9927 -95.0118 267° West 234 269 4,700 -720 Level FlightAware ADS-B
06:43PM 29.9928 -95.0176 271° West 232 267 4,600 -960 Descending FlightAware ADS-B
06:43PM 29.9934 -95.0350 272° West 224 258 4,400 -720 Descending FlightAware ADS-B
06:44PM 29.9936 -95.0476 271° West 220 253 4,300 -1,020 Descending FlightAware ADS-B
06:44PM 29.9936 -95.0627 270° West 219 252 4,000 -1,500 Descending FlightAware ADS-B
06:44PM 29.9935 -95.0810 270° West 221 254 3,600 -1,500 Descending FlightAware ADS-B
06:44PM 29.9935 -95.0977 270° West 220 253 3,300 -1,080 Descending FlightAware ADS-B
06:44PM 29.9935 -95.1153 270° West 216 249 3,100 -600 Descending FlightAware ADS-B
06:45PM 29.9935 -95.1324 270° West 203 234 3,000 -300 Descending FlightAware ADS-B
06:45PM 29.9934 -95.1365 268° West 199 229 3,000  Level FlightAware ADS-B
06:45PM 29.9933 -95.1454 269° West 194 223 3,000 -420 Level FlightAware ADS-B
06:45PM 29.9932 -95.1520 269° West 194 223 2,900 -900 Descending FlightAware ADS-B
06:45PM 29.9935 -95.1595 273° West 196 226 2,800 -1,140 Descending FlightAware ADS-B
06:45PM 29.9937 -95.1638 273° West 195 224 2,700 -1,140 Descending FlightAware ADS-B
06:45PM 29.9937 -95.1713 270° West 193 222 2,600 -1,020 Descending FlightAware ADS-B
06:46PM 29.9935 -95.1949 269° West 193 222 2,200 -1,020 Descending FlightAware ADS-B
06:46PM 29.9934 -95.2091 270° West 191 220 2,000 -1,020 Descending FlightAware ADS-B
06:46PM 29.9935 -95.2253 270° West 185 213 1,700 -960 Descending FlightAware ADS-B
06:47PM 29.9935 -95.2391 270° West 162 186 1,500 -900 Descending FlightAware ADS-B
06:47PM 29.9935 -95.2489 270° West 158 182 1,300 -900 Descending FlightAware ADS-B
06:47PM 29.9935 -95.2623 270° West 162 186 1,100 -780 Descending FlightAware ADS-B
06:47PM 29.9935 -95.2693 270° West 162 186 1,000 -780 Descending FlightAware ADS-B
06:47PM 29.9935 -95.2758 270° West 162 186 900 -840 Descending FlightAware ADS-B
06:47PM 29.9935 -95.2884 270° West 160 184 700 -900 Descending FlightAware ADS-B
06:48PM 29.9935 -95.2996 270° West 158 182 500 -840 Descending FlightAware ADS-B
06:48PM 29.9935 -95.3072 270° West 159 183 400 -720 Descending FlightAware ADS-B
06:48PM 29.9934 -95.3139 269° West 161 185 300 -840 Descending FlightAware ADS-B
06:48PM 29.9935 -95.3263 271° West 161 185 100 -840 Descending FlightAware ADS-B